Terminal Aerodrome Forecast
Issued by NWS Upton, NY

Home | Current Version | Previous Version | Text Only | Print | Product List | Glossary On
Versions: 1 2 3 4 5 6 7 8 9 10 11 12 13 14 15 16 17 18 19 20 21 22 23 24 25 26 27 28 29 30 31 32 33
000
FTUS41 KOKX 032140 AAB
TAFJFK
TAF AMD
KJFK 032140Z 0322/0424 05008KT 4SM BR OVC006
      TEMPO 0322/0402 SCT006 OVC010
     FM040400 07006KT 4SM BR OVC006
     FM041400 07008KT 4SM -SHRA BR OVC008=

USA.gov is the U.S. government's official web portal to all federal, state and local government web resources and services.